Time;durP1;ratioP1;P1;durP2;ratioP2;P2;SDS_P1;SDS_P2;PMS_P1;PMS_P2;Temp;Humidity;BMP_temperature;BMP_pressure;BME280_temperature;BME280_humidity;BME280_pressure;Samples;Min_cycle;Max_cycle;Signal;HPM_P1;HPM_P2
2023/05/03 00:01:34;;;;;;;5.53;2.33;;;3.40;99.90;;;;;;5059221;28;20240;-81
2023/05/03 00:04:00;;;;;;;3.30;2.20;;;3.40;99.90;;;;;;5039648;28;20230;-80
2023/05/03 00:06:27;;;;;;;3.60;1.80;;;3.30;99.90;;;;;;5056333;28;20832;-81
2023/05/03 00:08:54;;;;;;;4.83;2.00;;;3.30;99.90;;;;;;5053178;28;20233;-81
2023/05/03 00:11:21;;;;;;;6.80;2.27;;;3.30;99.90;;;;;;5062242;28;20249;-81
2023/05/03 00:13:49;;;;;;;4.07;2.30;;;3.30;99.90;;;;;;5039408;28;20233;-82
2023/05/03 00:16:16;;;;;;;5.53;2.40;;;3.20;99.90;;;;;;5057834;28;20264;-82
2023/05/03 00:18:43;;;;;;;4.33;2.33;;;3.20;99.90;;;;;;5045773;28;20230;-82
2023/05/03 00:21:09;;;;;;;6.93;2.40;;;3.10;99.90;;;;;;5033928;28;20316;-82
2023/05/03 00:23:36;;;;;;;3.10;2.23;;;3.10;99.90;;;;;;5060286;28;20299;-82
2023/05/03 00:26:03;;;;;;;7.40;2.20;;;3.10;99.90;;;;;;5061559;28;20223;-81
2023/05/03 00:28:30;;;;;;;4.87;2.23;;;3.00;99.90;;;;;;5040129;28;20581;-82
2023/05/03 00:31:07;;;;;;;7.43;2.17;;;3.00;99.90;;;;;;5063861;28;20865;-81
2023/05/03 00:33:34;;;;;;;4.13;2.30;;;3.00;99.90;;;;;;5042949;28;20327;-81
2023/05/03 00:36:07;;;;;;;5.27;2.30;;;3.00;99.90;;;;;;5042527;28;20223;-81
2023/05/03 00:38:34;;;;;;;6.87;2.43;;;3.00;99.90;;;;;;5048130;28;20313;-81
2023/05/03 00:41:02;;;;;;;4.53;2.20;;;2.90;99.90;;;;;;5044878;28;20242;-80
2023/05/03 00:43:29;;;;;;;5.87;2.80;;;2.90;99.90;;;;;;5043249;28;20922;-80
2023/05/03 00:45:56;;;;;;;5.50;2.27;;;2.80;99.90;;;;;;5064733;28;20820;-80
2023/05/03 00:48:24;;;;;;;4.37;2.00;;;2.80;99.90;;;;;;5063876;28;20236;-81
2023/05/03 00:50:53;;;;;;;6.30;2.73;;;2.80;99.90;;;;;;5064542;28;21367;-81
2023/05/03 00:53:21;;;;;;;4.87;2.73;;;2.70;99.90;;;;;;5045925;28;20247;-80
2023/05/03 00:55:48;;;;;;;6.83;2.20;;;2.70;99.90;;;;;;5044767;28;20870;-80
2023/05/03 00:58:15;;;;;;;4.13;2.20;;;2.70;99.90;;;;;;5036087;28;20313;-81
2023/05/03 01:00:42;;;;;;;4.87;2.33;;;2.60;99.90;;;;;;5044203;28;20380;-80
2023/05/03 01:03:08;;;;;;;4.50;2.50;;;2.60;99.90;;;;;;5043310;28;20224;-80
2023/05/03 01:05:49;;;;;;;5.63;2.50;;;2.60;99.90;;;;;;5040832;28;20219;-80
2023/05/03 01:08:25;;;;;;;6.07;2.20;;;2.60;99.90;;;;;;5036932;28;20672;-81
2023/05/03 01:11:00;;;;;;;2.70;2.10;;;2.50;99.90;;;;;;5050699;28;20449;-82
2023/05/03 01:13:35;;;;;;;4.90;2.00;;;2.50;99.90;;;;;;5058452;28;20294;-81
2023/05/03 01:16:15;;;;;;;2.93;1.77;;;2.50;99.90;;;;;;5045749;28;20228;-82
2023/05/03 01:18:47;;;;;;;5.00;2.20;;;2.50;99.90;;;;;;5045831;28;20236;-82
2023/05/03 01:21:17;;;;;;;4.57;2.27;;;2.50;99.90;;;;;;5043680;28;20225;-80
2023/05/03 01:23:54;;;;;;;5.13;2.40;;;2.40;99.90;;;;;;5042657;28;20295;-79
2023/05/03 01:26:23;;;;;;;4.43;2.00;;;2.40;99.90;;;;;;5053629;28;20312;-81
2023/05/03 01:28:50;;;;;;;6.07;2.50;;;2.30;99.90;;;;;;5045477;28;20903;-81
2023/05/03 01:31:23;;;;;;;5.40;2.30;;;2.30;99.90;;;;;;5060918;28;20271;-81
2023/05/03 01:34:02;;;;;;;5.27;2.10;;;2.30;99.90;;;;;;5046649;28;20221;-81
2023/05/03 01:36:32;;;;;;;3.97;2.23;;;2.30;99.90;;;;;;5046589;28;20743;-80
2023/05/03 01:39:03;;;;;;;8.07;2.43;;;2.20;99.90;;;;;;5046664;28;20226;-81
2023/05/03 01:41:33;;;;;;;7.00;2.37;;;2.20;99.90;;;;;;5058003;28;20274;-80
2023/05/03 01:44:01;;;;;;;4.73;2.57;;;2.20;99.90;;;;;;5057074;28;20770;-81
2023/05/03 01:46:27;;;;;;;5.07;2.47;;;2.10;99.90;;;;;;5041032;28;20237;-81
2023/05/03 01:48:54;;;;;;;3.57;2.40;;;2.10;99.90;;;;;;5049081;23;20323;-77
2023/05/03 01:51:21;;;;;;;6.13;2.37;;;2.10;99.90;;;;;;5059890;28;20214;-76
2023/05/03 01:53:49;;;;;;;5.80;2.40;;;2.20;99.90;;;;;;5049677;28;20221;-78
2023/05/03 01:56:16;;;;;;;6.47;2.77;;;2.20;99.90;;;;;;5041673;28;20221;-76
2023/05/03 01:58:44;;;;;;;5.17;2.60;;;2.20;99.90;;;;;;5050259;28;20240;-75
2023/05/03 02:01:11;;;;;;;7.67;2.93;;;2.30;99.90;;;;;;5065640;28;20315;-78
2023/05/03 02:03:37;;;;;;;5.73;2.30;;;2.30;99.90;;;;;;5087172;28;20229;-78
2023/05/03 02:06:04;;;;;;;4.40;2.70;;;2.30;99.90;;;;;;5067762;28;20226;-77
2023/05/03 02:08:31;;;;;;;3.87;2.37;;;2.30;99.90;;;;;;5061452;28;20265;-77
2023/05/03 02:10:58;;;;;;;3.90;2.20;;;2.30;99.90;;;;;;5061985;28;20857;-76
2023/05/03 02:13:25;;;;;;;5.87;2.77;;;2.30;99.90;;;;;;5062713;28;20250;-77
2023/05/03 02:15:54;;;;;;;5.50;2.90;;;2.30;99.90;;;;;;5088535;28;20229;-79
2023/05/03 02:18:21;;;;;;;6.27;2.73;;;2.30;99.90;;;;;;5079600;28;20225;-76
2023/05/03 02:20:47;;;;;;;3.77;2.30;;;2.30;99.90;;;;;;5080510;28;20220;-77
2023/05/03 02:23:14;;;;;;;4.17;2.57;;;2.30;99.90;;;;;;5060754;28;20230;-78
2023/05/03 02:25:41;;;;;;;4.57;2.47;;;2.40;99.90;;;;;;5064921;28;20320;-77
2023/05/03 02:28:08;;;;;;;4.80;2.40;;;2.40;99.90;;;;;;5066840;28;20219;-78
2023/05/03 02:30:35;;;;;;;4.53;2.20;;;2.40;99.90;;;;;;5062636;28;20216;-78
2023/05/03 02:33:04;;;;;;;4.97;2.90;;;2.40;99.90;;;;;;5078467;28;20214;-77
2023/05/03 02:35:31;;;;;;;5.50;2.23;;;2.40;99.90;;;;;;5062063;28;20221;-78
2023/05/03 02:37:58;;;;;;;5.43;2.67;;;2.40;99.90;;;;;;5082705;28;20285;-78
2023/05/03 02:40:25;;;;;;;5.47;2.57;;;2.40;99.90;;;;;;5064300;28;20945;-78
2023/05/03 02:42:53;;;;;;;3.23;2.40;;;2.40;99.90;;;;;;5072892;28;20306;-78
2023/05/03 02:45:25;;;;;;;4.97;2.40;;;2.40;99.90;;;;;;5062840;28;20222;-78
2023/05/03 02:47:52;;;;;;;5.50;2.73;;;2.40;99.90;;;;;;5066467;28;20219;-78
2023/05/03 02:50:21;;;;;;;5.07;3.00;;;2.40;99.90;;;;;;5068177;28;20233;-77
2023/05/03 02:52:47;;;;;;;4.80;2.87;;;2.40;99.90;;;;;;5083012;28;20225;-78
2023/05/03 02:55:15;;;;;;;8.53;2.60;;;2.50;99.90;;;;;;5065479;28;20218;-78
2023/05/03 02:57:44;;;;;;;5.77;2.73;;;2.50;99.90;;;;;;5066136;28;20647;-77
2023/05/03 03:00:15;;;;;;;6.93;3.07;;;2.50;99.90;;;;;;5080689;28;20225;-76
2023/05/03 03:02:43;;;;;;;6.67;3.10;;;2.60;99.90;;;;;;5080856;28;20225;-78
2023/05/03 03:05:10;;;;;;;6.17;2.97;;;2.70;99.90;;;;;;5064498;28;20239;-77
2023/05/03 03:07:39;;;;;;;7.80;3.00;;;2.70;99.90;;;;;;5058896;28;20694;-76
2023/05/03 03:10:07;;;;;;;4.90;2.80;;;2.80;99.90;;;;;;5062886;28;20217;-77
2023/05/03 03:12:35;;;;;;;7.70;2.70;;;2.80;99.90;;;;;;5083556;28;20622;-78
2023/05/03 03:15:06;;;;;;;5.40;2.97;;;2.90;99.90;;;;;;5060617;28;20219;-77
2023/05/03 03:17:37;;;;;;;7.57;2.90;;;3.00;99.90;;;;;;5067168;28;20220;-78
2023/05/03 03:20:06;;;;;;;6.23;2.53;;;3.10;99.90;;;;;;5058672;28;20273;-77
2023/05/03 03:22:33;;;;;;;8.03;2.60;;;3.10;99.90;;;;;;5079786;28;20752;-76
2023/05/03 03:25:01;;;;;;;6.30;2.70;;;3.10;99.90;;;;;;5064187;28;20224;-77
2023/05/03 03:27:28;;;;;;;5.47;2.80;;;3.30;99.90;;;;;;5084841;28;20335;-78
2023/05/03 03:29:54;;;;;;;7.20;2.90;;;3.20;99.90;;;;;;5073098;28;20703;-78
2023/05/03 03:32:21;;;;;;;5.73;3.00;;;3.30;99.90;;;;;;5078132;28;20227;-77
2023/05/03 03:34:48;;;;;;;4.17;3.00;;;3.40;99.90;;;;;;5085597;28;20925;-78
2023/05/03 03:37:15;;;;;;;4.53;2.87;;;3.40;99.90;;;;;;5065987;28;20245;-77
2023/05/03 03:39:42;;;;;;;9.03;3.03;;;3.40;99.90;;;;;;5065397;28;20244;-74
2023/05/03 03:42:12;;;;;;;5.40;2.83;;;3.50;99.90;;;;;;5058859;28;20888;-76
2023/05/03 03:44:39;;;;;;;5.33;2.73;;;3.50;99.90;;;;;;5063267;28;20232;-75
2023/05/03 03:47:07;;;;;;;5.43;2.33;;;3.60;99.90;;;;;;5072132;28;20320;-75
2023/05/03 03:49:35;;;;;;;5.63;3.10;;;3.60;99.90;;;;;;5087062;28;20631;-76
2023/05/03 03:52:01;;;;;;;7.20;2.77;;;3.70;99.90;;;;;;5062930;28;20232;-74
2023/05/03 03:54:28;;;;;;;6.97;2.90;;;3.70;99.90;;;;;;5064585;28;20676;-76
2023/05/03 03:56:55;;;;;;;6.10;2.70;;;3.70;99.90;;;;;;5063798;28;20312;-75
2023/05/03 03:59:23;;;;;;;5.73;2.93;;;3.80;99.90;;;;;;5076947;28;20233;-74
2023/05/03 04:01:51;;;;;;;7.10;2.80;;;3.90;99.90;;;;;;5065392;28;20254;-75
2023/05/03 04:04:17;;;;;;;6.03;3.23;;;3.90;99.90;;;;;;5065257;28;20227;-74
2023/05/03 04:06:45;;;;;;;6.13;3.17;;;3.90;99.90;;;;;;5067236;28;20259;-76
2023/05/03 04:09:16;;;;;;;8.23;2.67;;;4.00;99.90;;;;;;5068986;28;20289;-74
2023/05/03 04:11:43;;;;;;;7.23;3.17;;;4.00;99.90;;;;;;5067067;28;20218;-75
2023/05/03 04:14:10;;;;;;;6.27;3.23;;;4.10;99.90;;;;;;5080435;28;20227;-75
2023/05/03 04:16:38;;;;;;;6.00;2.80;;;4.20;99.90;;;;;;5065019;28;20300;-74
2023/05/03 04:19:06;;;;;;;4.07;2.80;;;4.20;99.90;;;;;;5064435;28;20296;-76
2023/05/03 04:21:36;;;;;;;9.03;3.03;;;4.30;99.90;;;;;;5065963;28;20636;-75
2023/05/03 04:24:04;;;;;;;6.07;3.03;;;4.30;99.90;;;;;;5069731;28;20627;-75
2023/05/03 04:26:31;;;;;;;5.73;2.90;;;4.40;99.90;;;;;;5066326;28;20772;-76
2023/05/03 04:29:05;;;;;;;4.47;2.70;;;4.40;99.90;;;;;;5067753;28;20216;-78
2023/05/03 04:31:32;;;;;;;4.13;2.87;;;4.50;99.90;;;;;;5076317;28;20226;-78
2023/05/03 04:34:01;;;;;;;4.17;2.53;;;4.50;99.90;;;;;;5082128;28;20222;-78
2023/05/03 04:36:28;;;;;;;7.67;3.20;;;4.60;99.90;;;;;;5068361;28;20315;-79
2023/05/03 04:38:57;;;;;;;6.80;3.00;;;4.70;99.90;;;;;;5069105;28;20219;-83
2023/05/03 04:41:24;;;;;;;8.50;3.67;;;4.70;99.90;;;;;;5074708;28;20227;-79
2023/05/03 04:43:53;;;;;;;8.93;3.73;;;4.80;99.90;;;;;;5067547;28;20530;-80
2023/05/03 04:46:20;;;;;;;6.53;4.13;;;4.90;99.90;;;;;;5070691;28;20780;-79
2023/05/03 04:48:47;;;;;;;7.53;4.30;;;4.90;99.90;;;;;;5069634;28;20229;-79
2023/05/03 04:51:15;;;;;;;8.33;3.57;;;5.00;99.90;;;;;;5093250;28;20237;-79
2023/05/03 04:53:43;;;;;;;7.77;3.37;;;5.10;99.90;;;;;;5074558;28;20626;-79
2023/05/03 04:56:15;;;;;;;8.00;3.80;;;5.20;99.90;;;;;;5072768;28;20202;-79
2023/05/03 04:58:43;;;;;;;6.90;3.57;;;5.20;99.90;;;;;;5102668;28;20318;-78
2023/05/03 05:01:11;;;;;;;9.13;4.30;;;5.30;99.90;;;;;;5069870;28;20229;-80
2023/05/03 05:03:38;;;;;;;7.43;3.20;;;5.40;99.90;;;;;;5071349;28;20230;-79
2023/05/03 05:06:11;;;;;;;5.93;3.70;;;5.40;99.90;;;;;;5072186;28;20224;-78
2023/05/03 05:08:41;;;;;;;6.30;3.67;;;5.50;99.90;;;;;;5074563;28;20984;-80
2023/05/03 05:11:10;;;;;;;10.03;4.23;;;5.60;99.90;;;;;;5069154;28;20773;-81
2023/05/03 05:13:37;;;;;;;7.20;4.23;;;5.70;99.90;;;;;;5083897;28;20223;-81
2023/05/03 05:16:04;;;;;;;6.60;3.60;;;5.80;99.90;;;;;;5075668;28;20242;-79
2023/05/03 05:18:31;;;;;;;5.60;3.93;;;5.80;99.90;;;;;;5069844;28;20406;-81
2023/05/03 05:21:02;;;;;;;6.40;3.73;;;5.90;99.90;;;;;;5072575;28;20650;-81
2023/05/03 05:23:29;;;;;;;8.07;3.37;;;6.00;99.90;;;;;;5072202;28;20226;-81
2023/05/03 05:25:59;;;;;;;6.90;3.60;;;6.10;99.90;;;;;;5077486;28;20324;-81
2023/05/03 05:28:28;;;;;;;9.70;3.80;;;6.20;99.90;;;;;;5072209;28;20229;-80
2023/05/03 05:30:55;;;;;;;8.03;3.80;;;6.30;99.90;;;;;;5069369;28;20219;-80
2023/05/03 05:33:23;;;;;;;9.50;3.53;;;6.40;99.90;;;;;;5069439;28;20894;-81
2023/05/03 05:35:51;;;;;;;8.03;4.00;;;6.50;99.90;;;;;;5083876;28;20213;-79
2023/05/03 05:38:20;;;;;;;5.47;3.67;;;6.50;99.90;;;;;;5066869;28;20226;-77
2023/05/03 05:40:47;;;;;;;5.67;3.37;;;6.60;99.90;;;;;;5063939;28;20627;-78
2023/05/03 05:43:16;;;;;;;6.00;3.03;;;6.70;99.90;;;;;;5061851;28;20217;-78
2023/05/03 05:45:45;;;;;;;6.73;3.30;;;6.80;99.90;;;;;;5083423;28;20735;-78
2023/05/03 05:48:12;;;;;;;5.73;2.90;;;6.90;99.90;;;;;;5069578;28;20250;-77
2023/05/03 05:50:39;;;;;;;10.43;3.50;;;7.00;99.90;;;;;;5066494;28;20238;-78
2023/05/03 05:53:09;;;;;;;6.20;3.03;;;7.20;99.90;;;;;;5072045;28;20252;-76
2023/05/03 05:55:40;;;;;;;5.70;2.90;;;7.30;99.90;;;;;;5067682;28;20218;-78
2023/05/03 05:58:06;;;;;;;5.17;3.07;;;7.40;99.90;;;;;;5068036;28;20219;-76
2023/05/03 06:00:41;;;;;;;5.00;3.03;;;7.50;99.90;;;;;;5075125;28;20223;-78
2023/05/03 06:03:08;;;;;;;6.13;2.80;;;7.60;99.90;;;;;;5068270;28;20218;-78
2023/05/03 06:05:34;;;;;;;9.60;2.87;;;7.70;99.90;;;;;;5083888;28;20233;-78
2023/05/03 06:08:01;;;;;;;4.07;3.00;;;7.80;99.90;;;;;;5070405;28;20214;-78
2023/05/03 06:10:28;;;;;;;8.73;2.70;;;7.80;99.90;;;;;;5068444;28;20238;-78
2023/05/03 06:12:56;;;;;;;7.47;2.53;;;7.90;99.90;;;;;;5064605;28;20275;-78
2023/05/03 06:15:26;;;;;;;5.63;2.10;;;7.90;99.90;;;;;;5084970;28;20305;-77
2023/05/03 06:17:54;;;;;;;6.60;2.10;;;8.00;99.90;;;;;;5068056;28;20218;-78
2023/05/03 06:20:23;;;;;;;5.27;1.77;;;8.10;99.90;;;;;;5079453;28;20245;-78
2023/05/03 06:22:50;;;;;;;4.60;1.30;;;8.20;99.90;;;;;;5067722;28;20218;-77
2023/05/03 06:25:17;;;;;;;2.60;1.20;;;8.20;99.90;;;;;;5068765;28;20756;-78
2023/05/03 06:27:47;;;;;;;2.87;1.33;;;8.30;99.90;;;;;;5071037;28;20222;-78
2023/05/03 06:30:15;;;;;;;4.83;1.30;;;8.40;99.70;;;;;;5068544;28;20233;-78
2023/05/03 06:32:43;;;;;;;2.67;1.00;;;8.50;99.10;;;;;;5072707;28;20221;-76
2023/05/03 06:35:12;;;;;;;4.37;1.00;;;8.50;98.80;;;;;;5071063;28;20223;-76
2023/05/03 06:37:42;;;;;;;2.40;0.97;;;8.60;98.40;;;;;;5064612;28;20241;-76
2023/05/03 06:40:10;;;;;;;4.40;1.20;;;8.70;98.40;;;;;;5070258;28;20876;-75
2023/05/03 06:42:36;;;;;;;3.17;1.00;;;8.80;98.30;;;;;;5067461;28;20222;-76
2023/05/03 06:45:12;;;;;;;2.80;0.90;;;8.90;98.30;;;;;;5060916;28;20233;-76
2023/05/03 06:47:41;;;;;;;3.33;1.27;;;9.10;97.80;;;;;;5083517;28;20705;-76
2023/05/03 06:50:08;;;;;;;5.23;1.17;;;9.30;97.60;;;;;;5068451;28;20365;-76
2023/05/03 06:52:36;;;;;;;5.23;1.23;;;9.50;97.40;;;;;;5065657;28;20220;-76
2023/05/03 06:55:04;;;;;;;2.60;1.47;;;9.80;97.30;;;;;;5066447;28;20221;-75
2023/05/03 06:57:31;;;;;;;2.13;1.17;;;10.10;96.50;;;;;;5071855;28;20718;-75
2023/05/03 06:59:58;;;;;;;4.20;1.00;;;10.40;95.80;;;;;;5069691;28;20248;-76
2023/05/03 07:02:26;;;;;;;2.67;1.20;;;10.60;95.30;;;;;;5082114;28;20227;-76
2023/05/03 07:04:52;;;;;;;1.80;1.10;;;10.70;94.70;;;;;;5080812;28;20220;-76
2023/05/03 07:07:19;;;;;;;2.93;0.77;;;10.90;94.50;;;;;;5086921;28;20223;-75
2023/05/03 07:09:48;;;;;;;3.47;0.90;;;10.90;94.30;;;;;;5081922;28;20231;-76
2023/05/03 07:12:15;;;;;;;3.40;1.27;;;11.00;93.70;;;;;;5064800;28;20216;-76
2023/05/03 07:14:42;;;;;;;3.37;1.20;;;11.10;94.00;;;;;;5082934;28;20260;-76
2023/05/03 07:17:09;;;;;;;3.57;1.00;;;11.20;93.50;;;;;;5086077;28;20328;-76
2023/05/03 07:19:37;;;;;;;3.47;1.10;;;11.30;93.40;;;;;;5083904;28;20310;-76
2023/05/03 07:22:04;;;;;;;3.40;1.00;;;11.40;92.80;;;;;;5067368;28;20592;-76
2023/05/03 07:24:31;;;;;;;1.90;0.77;;;11.40;92.70;;;;;;5090528;28;20715;-76
2023/05/03 07:26:59;;;;;;;3.17;1.13;;;11.30;92.50;;;;;;5064020;28;20221;-76
2023/05/03 07:29:26;;;;;;;4.27;1.10;;;11.30;92.30;;;;;;5085073;28;20260;-76
2023/05/03 07:31:53;;;;;;;3.90;1.20;;;11.30;92.30;;;;;;5092320;28;20225;-76
2023/05/03 07:34:20;;;;;;;2.63;0.97;;;11.30;92.30;;;;;;5081137;28;20311;-76
2023/05/03 07:36:47;;;;;;;3.63;1.40;;;11.40;93.20;;;;;;5071006;28;20311;-76
2023/05/03 07:39:13;;;;;;;3.60;1.00;;;11.60;93.00;;;;;;5087624;28;20218;-76
2023/05/03 07:41:40;;;;;;;2.30;1.10;;;12.00;92.30;;;;;;5088390;28;20234;-76
2023/05/03 07:44:08;;;;;;;2.93;1.07;;;12.40;92.00;;;;;;5075701;28;20231;-76
2023/05/03 07:46:35;;;;;;;4.30;2.33;;;12.60;90.40;;;;;;5072882;28;20252;-75
2023/05/03 07:51:35;;;;;;;3.50;0.90;;;12.70;89.90;;;;;;5059343;28;20215;-77
2023/05/03 07:54:03;;;;;;;3.13;1.10;;;12.70;89.40;;;;;;5067026;28;20587;-77
2023/05/03 07:56:32;;;;;;;1.87;1.00;;;12.60;89.20;;;;;;5079124;28;20864;-77
2023/05/03 07:59:01;;;;;;;3.60;0.80;;;12.50;89.20;;;;;;5065767;28;20220;-77
2023/05/03 08:01:29;;;;;;;2.50;1.20;;;12.40;88.70;;;;;;5056708;28;20288;-77
2023/05/03 08:03:57;;;;;;;4.50;1.83;;;12.40;87.80;;;;;;5054049;28;20221;-77
2023/05/03 08:06:24;;;;;;;1.43;1.20;;;12.40;88.20;;;;;;5052242;28;20235;-77
2023/05/03 08:08:51;;;;;;;3.40;1.10;;;12.30;88.80;;;;;;5045670;28;21040;-77
2023/05/03 08:11:18;;;;;;;1.10;0.80;;;12.30;88.90;;;;;;5054675;28;20247;-77
2023/05/03 08:13:45;;;;;;;5.63;1.10;;;12.40;88.50;;;;;;5048800;28;20272;-77
2023/05/03 08:16:15;;;;;;;4.17;0.80;;;12.80;89.10;;;;;;5050532;28;20235;-77
2023/05/03 08:18:43;;;;;;;3.77;0.90;;;13.20;88.70;;;;;;5054038;28;20701;-78
2023/05/03 08:21:12;;;;;;;3.70;0.80;;;13.80;86.20;;;;;;5044689;28;20234;-78
2023/05/03 08:23:39;;;;;;;2.70;0.83;;;14.50;86.20;;;;;;5054219;28;20273;-78
2023/05/03 08:26:06;;;;;;;1.10;0.80;;;15.30;84.10;;;;;;5031225;28;20260;-78
2023/05/03 08:28:36;;;;;;;2.40;0.90;;;15.90;83.30;;;;;;5048183;28;20717;-78
2023/05/03 08:31:06;;;;;;;1.57;1.00;;;16.50;80.90;;;;;;5054881;28;20226;-78
2023/05/03 08:33:33;;;;;;;2.90;1.10;;;17.00;79.70;;;;;;5050496;28;20740;-78
2023/05/03 08:36:01;;;;;;;1.33;0.80;;;17.20;77.50;;;;;;5023876;28;20220;-78
2023/05/03 08:38:28;;;;;;;2.60;1.00;;;17.30;74.10;;;;;;5046458;28;20612;-78
2023/05/03 08:40:59;;;;;;;2.03;0.73;;;17.30;74.00;;;;;;5047022;28;20281;-78
2023/05/03 08:43:39;;;;;;;1.97;0.90;;;17.20;73.00;;;;;;5059830;28;20261;-78
2023/05/03 08:46:06;;;;;;;2.27;0.80;;;17.00;72.30;;;;;;5057479;28;20224;-78
2023/05/03 08:48:33;;;;;;;2.23;0.97;;;16.80;72.40;;;;;;5041355;28;20228;-78
2023/05/03 08:51:04;;;;;;;1.83;0.90;;;16.50;71.80;;;;;;5041105;28;20790;-78
2023/05/03 08:53:30;;;;;;;5.30;0.97;;;16.30;71.70;;;;;;5050167;28;20251;-78
2023/05/03 08:55:57;;;;;;;3.73;1.00;;;16.10;72.00;;;;;;5035692;28;20232;-78
2023/05/03 08:58:24;;;;;;;2.60;0.90;;;15.90;71.80;;;;;;5047333;28;20231;-78
2023/05/03 09:00:51;;;;;;;1.90;0.87;;;15.70;70.60;;;;;;5052135;28;20303;-78
2023/05/03 09:03:19;;;;;;;2.40;0.90;;;15.50;70.80;;;;;;5047451;28;20230;-78
2023/05/03 09:05:46;;;;;;;1.57;0.90;;;15.30;70.90;;;;;;5032854;28;20238;-78
2023/05/03 09:08:15;;;;;;;3.07;0.93;;;15.10;71.30;;;;;;5043225;28;20221;-78
2023/05/03 09:10:43;;;;;;;1.70;0.80;;;14.80;70.70;;;;;;5055324;28;20234;-78
2023/05/03 09:13:10;;;;;;;2.07;0.80;;;14.70;71.00;;;;;;5045096;28;20251;-78
2023/05/03 09:15:37;;;;;;;2.10;0.80;;;14.50;71.40;;;;;;5053309;28;20308;-78
2023/05/03 09:18:09;;;;;;;4.10;1.33;;;14.50;73.00;;;;;;5035841;28;20586;-78
2023/05/03 09:20:37;;;;;;;2.13;0.80;;;14.60;71.40;;;;;;5051614;28;20249;-78
2023/05/03 09:23:05;;;;;;;1.40;0.90;;;14.90;73.10;;;;;;5045635;28;20247;-78
2023/05/03 09:25:50;;;;;;;2.67;1.20;;;15.20;71.70;;;;;;5051694;28;20832;-78
2023/05/03 09:28:18;;;;;;;2.73;0.83;;;15.50;71.10;;;;;;5040407;28;20231;-78
2023/05/03 09:30:45;;;;;;;1.90;1.07;;;15.90;72.20;;;;;;5056281;28;20650;-78
2023/05/03 09:33:18;;;;;;;1.20;0.83;;;16.10;72.20;;;;;;5048384;28;20211;-78
2023/05/03 09:35:56;;;;;;;4.53;1.40;;;16.40;70.60;;;;;;5045995;28;20255;-78
2023/05/03 09:38:28;;;;;;;2.40;0.97;;;16.70;68.90;;;;;;5032936;28;20610;-78
2023/05/03 09:40:56;;;;;;;2.87;1.20;;;16.80;68.80;;;;;;5037265;28;20223;-78
2023/05/03 09:43:23;;;;;;;4.40;1.20;;;17.00;68.10;;;;;;5055294;28;20219;-78
2023/05/03 09:45:50;;;;;;;4.15;1.08;;;17.10;68.40;;;;;;5035813;28;20247;-78
2023/05/03 09:48:19;;;;;;;2.15;1.00;;;17.20;67.20;;;;;;5043301;28;20530;-78
2023/05/03 09:50:46;;;;;;;2.30;0.93;;;17.30;66.30;;;;;;5050491;28;20320;-78
2023/05/03 09:53:17;;;;;;;2.03;1.05;;;17.40;66.60;;;;;;5045597;28;20945;-78
2023/05/03 09:55:44;;;;;;;2.07;0.90;;;17.40;66.10;;;;;;5047940;28;20239;-78
2023/05/03 09:58:12;;;;;;;3.13;1.40;;;17.40;66.20;;;;;;5033348;28;20216;-78
2023/05/03 10:00:41;;;;;;;2.47;1.00;;;17.30;65.30;;;;;;5041479;28;20232;-78
2023/05/03 10:03:10;;;;;;;4.20;1.10;;;17.30;65.90;;;;;;5047713;28;20275;-78
2023/05/03 10:05:43;;;;;;;3.42;1.05;;;17.20;65.00;;;;;;5043410;28;20439;-78
2023/05/03 10:08:12;;;;;;;3.63;1.23;;;17.00;65.10;;;;;;5048134;28;20219;-78
2023/05/03 10:10:44;;;;;;;2.57;1.10;;;16.90;65.60;;;;;;5049229;28;20242;-78
2023/05/03 10:13:13;;;;;;;2.73;1.10;;;16.80;65.40;;;;;;5048725;28;20238;-78
2023/05/03 10:15:42;;;;;;;2.10;1.30;;;16.70;65.90;;;;;;5035831;28;20223;-78
2023/05/03 10:18:13;;;;;;;3.13;1.13;;;16.60;66.60;;;;;;5038205;28;20228;-78
2023/05/03 10:20:44;;;;;;;3.70;1.10;;;16.60;66.40;;;;;;5054551;28;20238;-78
2023/05/03 10:23:13;;;;;;;3.57;1.03;;;16.60;65.20;;;;;;5054292;28;20242;-78
2023/05/03 10:26:01;;;;;;;3.47;1.47;;;16.60;65.10;;;;;;5058205;28;20236;-78
2023/05/03 10:28:29;;;;;;;3.33;1.10;;;16.70;64.70;;;;;;5029522;28;20716;-78
2023/05/03 10:30:56;;;;;;;4.57;1.03;;;16.70;64.80;;;;;;5045557;28;20226;-78
2023/05/03 10:33:31;;;;;;;3.07;1.17;;;16.70;65.00;;;;;;5052743;28;20329;-78
2023/05/03 10:35:59;;;;;;;4.20;1.33;;;16.80;64.90;;;;;;5047669;28;20225;-78
2023/05/03 10:38:27;;;;;;;1.93;1.00;;;17.00;64.30;;;;;;5050309;28;20224;-78
2023/05/03 10:40:55;;;;;;;2.85;1.10;;;17.10;64.60;;;;;;5048432;28;20353;-78
2023/05/03 10:43:45;;;;;;;1.92;0.70;;;17.40;64.90;;;;;;5026596;28;20231;-78
2023/05/03 10:46:31;;;;;;;4.07;1.10;;;17.90;64.80;;;;;;5042008;28;20216;-78
2023/05/03 10:49:18;;;;;;;3.20;1.05;;;18.40;63.00;;;;;;5039725;28;20216;-78
2023/05/03 10:51:46;;;;;;;2.35;1.13;;;18.80;58.50;;;;;;5051717;28;20247;-78
2023/05/03 10:54:13;;;;;;;2.10;1.00;;;19.10;59.50;;;;;;5046885;28;20228;-78
2023/05/03 10:56:54;;;;;;;2.63;1.30;;;19.30;58.20;;;;;;5038328;28;20234;-78
2023/05/03 10:59:24;;;;;;;1.98;1.00;;;19.40;59.10;;;;;;5044994;28;20227;-78
2023/05/03 11:01:52;;;;;;;2.42;0.90;;;19.70;59.50;;;;;;5040251;28;20254;-79
2023/05/03 11:04:41;;;;;;;2.03;0.93;;;20.00;58.90;;;;;;5055704;28;20406;-78
2023/05/03 11:07:09;;;;;;;2.30;1.02;;;20.30;58.70;;;;;;5032917;28;20775;-78
2023/05/03 11:09:35;;;;;;;2.65;1.00;;;20.60;58.30;;;;;;5049721;28;20227;-78
2023/05/03 11:12:07;;;;;;;2.10;1.00;;;20.80;57.20;;;;;;5047521;28;20220;-78
2023/05/03 11:14:36;;;;;;;2.38;1.17;;;20.80;55.70;;;;;;5044114;28;20227;-78
2023/05/03 11:17:02;;;;;;;2.72;0.90;;;20.60;55.70;;;;;;5015721;28;20217;-78
2023/05/03 11:19:30;;;;;;;2.45;1.00;;;20.40;55.60;;;;;;5021633;28;20234;-78
2023/05/03 11:21:57;;;;;;;2.33;1.33;;;20.10;55.30;;;;;;5045911;28;20226;-78
2023/05/03 11:24:24;;;;;;;2.67;1.10;;;19.80;54.80;;;;;;5029077;28;20603;-78
2023/05/03 11:26:50;;;;;;;1.60;1.05;;;19.40;55.90;;;;;;5044670;28;20323;-78
2023/05/03 11:29:18;;;;;;;2.63;1.65;;;19.30;56.90;;;;;;5034948;28;20239;-78
2023/05/03 11:31:46;;;;;;;3.03;0.98;;;19.20;56.30;;;;;;5034769;28;20231;-78
2023/05/03 11:34:14;;;;;;;2.92;1.02;;;19.20;56.60;;;;;;5042200;28;20220;-78
2023/05/03 11:36:41;;;;;;;1.80;1.30;;;19.30;57.00;;;;;;5048679;28;20310;-78
2023/05/03 11:39:09;;;;;;;3.38;1.02;;;19.40;56.70;;;;;;5035165;28;20216;-78
2023/05/03 11:41:36;;;;;;;2.05;0.90;;;19.60;56.80;;;;;;5041547;28;20291;-79
2023/05/03 11:44:04;;;;;;;3.47;1.27;;;19.90;56.90;;;;;;5033347;28;20223;-78
2023/05/03 11:46:34;;;;;;;2.65;1.30;;;20.30;56.40;;;;;;5018684;28;20224;-79
2023/05/03 11:49:03;;;;;;;2.60;1.30;;;20.50;54.90;;;;;;5047569;28;20225;-78
2023/05/03 11:51:30;;;;;;;2.03;1.00;;;20.60;54.00;;;;;;5050411;28;20279;-78
2023/05/03 11:54:00;;;;;;;2.28;1.30;;;20.70;54.10;;;;;;5038313;28;20227;-79
2023/05/03 11:56:27;;;;;;;2.38;1.10;;;20.50;53.40;;;;;;5047656;28;20239;-78
2023/05/03 11:58:57;;;;;;;2.95;1.10;;;20.40;54.00;;;;;;5029672;28;20229;-78
2023/05/03 12:01:25;;;;;;;3.72;1.40;;;20.30;54.00;;;;;;5047325;28;20236;-78
2023/05/03 12:03:56;;;;;;;2.67;0.90;;;20.20;54.70;;;;;;5030619;28;20235;-78
2023/05/03 12:06:26;;;;;;;1.48;0.93;;;20.30;54.60;;;;;;5039639;28;20616;-78
2023/05/03 12:08:53;;;;;;;1.35;1.02;;;20.40;53.90;;;;;;5044619;28;20220;-78
2023/05/03 12:11:20;;;;;;;2.95;1.17;;;20.50;53.30;;;;;;5043476;28;20385;-78
2023/05/03 12:13:57;;;;;;;3.90;1.45;;;20.60;53.70;;;;;;5032837;28;20257;-78
2023/05/03 12:16:24;;;;;;;2.88;1.20;;;20.70;53.00;;;;;;5023580;28;20321;-78
2023/05/03 12:18:53;;;;;;;4.28;1.17;;;20.80;53.50;;;;;;5046918;28;20236;-78
2023/05/03 12:21:22;;;;;;;4.35;1.20;;;21.00;52.50;;;;;;5028059;28;20224;-79
2023/05/03 12:23:51;;;;;;;3.95;1.40;;;21.10;52.30;;;;;;5038596;28;20224;-78
2023/05/03 12:26:18;;;;;;;2.72;1.20;;;21.20;52.30;;;;;;5031513;28;20238;-78
2023/05/03 12:28:46;;;;;;;1.90;1.13;;;21.40;52.10;;;;;;5034218;28;20220;-78
2023/05/03 12:31:13;;;;;;;2.63;1.10;;;21.40;51.30;;;;;;5050268;28;20223;-78
2023/05/03 12:33:40;;;;;;;2.95;1.30;;;21.40;50.70;;;;;;5044860;28;20312;-79
2023/05/03 12:36:07;;;;;;;3.67;1.42;;;21.40;50.70;;;;;;5043964;28;20223;-79
2023/05/03 12:38:34;;;;;;;2.28;1.20;;;21.30;50.90;;;;;;5049684;28;20228;-78
2023/05/03 12:41:03;;;;;;;3.22;1.10;;;21.20;50.70;;;;;;5029371;28;20259;-78
2023/05/03 12:43:29;;;;;;;2.47;1.17;;;21.20;50.40;;;;;;5035556;28;20270;-78
2023/05/03 12:45:57;;;;;;;2.67;1.27;;;21.20;50.80;;;;;;5050250;28;20251;-79
2023/05/03 12:48:25;;;;;;;3.53;1.52;;;21.20;50.40;;;;;;5039706;28;20224;-78
2023/05/03 12:50:53;;;;;;;2.22;1.20;;;21.20;50.70;;;;;;5050243;28;20242;-78
2023/05/03 12:53:21;;;;;;;2.78;1.10;;;21.30;50.20;;;;;;5044631;28;20227;-79
2023/05/03 12:55:48;;;;;;;2.95;1.30;;;21.20;50.40;;;;;;5047305;28;20745;-79
2023/05/03 12:58:16;;;;;;;1.98;1.25;;;21.30;50.80;;;;;;5046274;28;20240;-77
2023/05/03 13:00:46;;;;;;;3.60;1.08;;;21.20;50.10;;;;;;5033505;28;20244;-78
2023/05/03 13:03:13;;;;;;;2.63;1.00;;;21.20;49.40;;;;;;5045906;28;20706;-78